createdAt,value
2017-11-19T00:01:06.430Z,57.72
2017-11-19T00:03:33.983Z,57.79
2017-11-19T00:06:02.470Z,58.94
2017-11-19T00:08:30.037Z,58.29
2017-11-19T00:10:57.547Z,58.48
2017-11-19T00:13:25.076Z,58.88
2017-11-19T00:15:52.683Z,59.20
2017-11-19T00:18:20.191Z,58.99
2017-11-19T00:20:47.710Z,59.26
2017-11-19T00:23:15.251Z,59.94
2017-11-19T00:25:42.766Z,60.15
2017-11-19T00:28:10.289Z,58.25
2017-11-19T00:30:37.847Z,60.02
2017-11-19T00:33:05.408Z,59.39
2017-11-19T00:35:32.967Z,60.46
2017-11-19T00:38:00.863Z,61.15
2017-11-19T00:40:31.567Z,62.03
2017-11-19T00:42:59.091Z,62.32
2017-11-19T00:45:26.631Z,63.02
2017-11-19T00:47:54.465Z,63.97
2017-11-19T00:50:22.343Z,65.28
2017-11-19T00:52:49.894Z,65.87
2017-11-19T00:55:17.629Z,65.96
2017-11-19T00:57:45.140Z,66.38
2017-11-19T01:00:12.955Z,66.27
2017-11-19T01:02:40.459Z,66.89
2017-11-19T01:05:19.753Z,66.58
2017-11-19T01:07:47.443Z,67.88
2017-11-19T01:10:15.084Z,68.28
2017-11-19T01:12:42.681Z,68.10
2017-11-19T01:15:10.187Z,68.15
2017-11-19T01:17:39.800Z,68.51
2017-11-19T01:20:08.311Z,68.70
2017-11-19T01:22:35.924Z,68.41
2017-11-19T01:25:03.427Z,68.96
2017-11-19T01:27:31.139Z,68.86
2017-11-19T01:29:58.643Z,69.09
2017-11-19T01:32:26.998Z,69.12
2017-11-19T01:34:54.543Z,68.35
2017-11-19T01:37:22.705Z,67.59
2017-11-19T01:39:50.232Z,68.29
2017-11-19T01:42:17.953Z,67.77
2017-11-19T01:44:45.511Z,67.48
2017-11-19T01:47:13.020Z,66.96
2017-11-19T01:49:40.834Z,67.62
2017-11-19T01:52:08.398Z,67.29
2017-11-19T01:54:35.954Z,66.43
2017-11-19T01:57:03.716Z,66.52
2017-11-19T01:59:31.224Z,66.44
2017-11-19T02:01:58.739Z,65.98
2017-11-19T02:04:26.284Z,66.09
2017-11-19T02:06:53.787Z,66.24
2017-11-19T02:09:21.296Z,66.08
2017-11-19T02:11:48.997Z,65.70
2017-11-19T02:14:16.535Z,65.74
2017-11-19T02:16:44.087Z,66.21
2017-11-19T02:19:11.647Z,66.00
2017-11-19T02:21:39.218Z,66.68
2017-11-19T02:24:06.744Z,66.49
2017-11-19T02:26:34.438Z,66.37
2017-11-19T02:29:02.004Z,66.53
2017-11-19T02:31:29.545Z,65.24
2017-11-19T02:33:57.309Z,65.75
2017-11-19T02:36:24.824Z,66.33
2017-11-19T02:38:52.355Z,66.29
2017-11-19T02:41:20.064Z,66.30
2017-11-19T02:43:47.585Z,66.62
2017-11-19T02:46:15.100Z,66.40
2017-11-19T02:48:42.639Z,66.05
2017-11-19T02:51:10.144Z,66.78
2017-11-19T02:53:37.694Z,66.08
2017-11-19T02:56:05.544Z,66.05
2017-11-19T02:58:33.105Z,66.39
2017-11-19T03:01:00.636Z,66.79
2017-11-19T03:03:28.209Z,66.02
2017-11-19T03:05:55.823Z,66.74
2017-11-19T03:08:23.341Z,66.17
2017-11-19T03:10:51.076Z,66.84
2017-11-19T03:13:18.599Z,66.47
2017-11-19T03:15:46.228Z,66.34
2017-11-19T03:18:13.960Z,66.46
2017-11-19T03:20:41.483Z,66.15
2017-11-19T03:23:09.004Z,68.17
2017-11-19T03:25:36.562Z,68.73
2017-11-19T03:28:04.080Z,68.91
2017-11-19T03:30:31.593Z,70.14
2017-11-19T03:32:59.357Z,69.96
2017-11-19T03:35:26.876Z,69.69
2017-11-19T03:37:54.387Z,70.30
2017-11-19T03:40:21.929Z,70.16
2017-11-19T03:42:49.475Z,69.86
2017-11-19T03:45:16.985Z,69.68
2017-11-19T03:47:44.593Z,70.47
2017-11-19T03:50:12.151Z,70.15
2017-11-19T03:52:39.843Z,70.04
2017-11-19T03:55:07.484Z,70.79
2017-11-19T03:57:35.038Z,69.37
2017-11-19T04:00:02.601Z,69.83
2017-11-19T04:02:30.356Z,69.84
2017-11-19T04:04:57.875Z,69.75
2017-11-19T04:07:25.392Z,69.12
2017-11-19T04:09:52.953Z,69.56
2017-11-19T04:12:20.490Z,69.33
2017-11-19T04:14:47.996Z,68.61
2017-11-19T04:17:15.789Z,68.73
2017-11-19T04:19:43.296Z,67.76
2017-11-19T04:22:10.852Z,67.61
2017-11-19T04:24:38.390Z,68.80
2017-11-19T04:27:05.899Z,68.39
2017-11-19T04:29:33.413Z,68.27
2017-11-19T04:32:01.148Z,68.65
2017-11-19T04:34:28.664Z,68.82
2017-11-19T04:36:56.182Z,69.35
2017-11-19T04:39:24.050Z,69.31
2017-11-19T04:41:51.611Z,68.42
2017-11-19T04:44:19.186Z,68.63
2017-11-19T04:46:46.764Z,68.24
2017-11-19T04:49:14.271Z,68.00
2017-11-19T04:51:41.796Z,68.01
2017-11-19T04:54:09.711Z,68.35
2017-11-19T04:56:37.221Z,68.57
2017-11-19T04:59:04.748Z,68.43
2017-11-19T05:01:32.288Z,68.91
2017-11-19T05:03:59.807Z,67.97
2017-11-19T05:06:27.314Z,68.67
2017-11-19T05:08:55.070Z,68.46
2017-11-19T05:11:22.627Z,67.22
2017-11-19T05:13:50.185Z,65.75
2017-11-19T05:18:44.760Z,65.71
2017-11-19T05:21:12.275Z,65.06
2017-11-19T05:23:39.851Z,65.46
2017-11-19T05:26:07.366Z,65.33
2017-11-19T05:28:34.875Z,64.85
2017-11-19T05:31:02.791Z,65.42
2017-11-19T05:33:30.297Z,65.57
2017-11-19T05:35:57.812Z,66.17
2017-11-19T05:38:25.353Z,65.78
2017-11-19T05:40:52.864Z,66.20
2017-11-19T05:43:20.380Z,65.87
2017-11-19T05:45:47.919Z,65.64
2017-11-19T05:48:16.148Z,66.58
2017-11-19T05:50:43.680Z,65.71
2017-11-19T05:53:12.102Z,65.34
2017-11-19T05:55:39.620Z,64.67
2017-11-19T05:58:07.130Z,64.05
2017-11-19T06:00:34.934Z,64.04
2017-11-19T06:03:02.439Z,63.60
2017-11-19T06:05:29.966Z,63.61
2017-11-19T06:07:57.714Z,63.78
2017-11-19T06:10:25.226Z,63.22
2017-11-19T06:12:52.742Z,63.41
2017-11-19T06:15:20.467Z,63.42
2017-11-19T06:17:47.983Z,63.01
2017-11-19T06:20:15.492Z,62.95
2017-11-19T06:22:43.137Z,62.45
2017-11-19T06:25:10.645Z,63.75
2017-11-19T06:27:38.189Z,63.62
2017-11-19T06:30:05.740Z,62.66
2017-11-19T06:32:33.249Z,62.81
2017-11-19T06:35:00.756Z,62.76
2017-11-19T06:37:28.501Z,62.73
2017-11-19T06:39:56.011Z,63.18
2017-11-19T06:42:23.526Z,64.16
2017-11-19T06:44:51.327Z,64.80
2017-11-19T06:47:18.847Z,64.21
2017-11-19T06:49:46.359Z,65.42
2017-11-19T06:52:13.923Z,64.86
2017-11-19T06:54:41.432Z,64.86
2017-11-19T06:57:08.952Z,65.02
2017-11-19T06:59:36.555Z,66.31
2017-11-19T07:02:04.060Z,65.26
2017-11-19T07:04:31.568Z,64.89
2017-11-19T07:06:59.148Z,65.29
2017-11-19T07:09:26.699Z,64.93
2017-11-19T07:11:54.259Z,65.82
2017-11-19T07:14:22.220Z,65.95
2017-11-19T07:16:49.778Z,65.40
2017-11-19T07:19:17.298Z,66.22
2017-11-19T07:21:44.867Z,65.87
2017-11-19T07:24:12.379Z,66.99
2017-11-19T07:26:39.896Z,66.05
2017-11-19T07:29:07.512Z,66.36
2017-11-19T07:34:01.877Z,66.05
2017-11-19T07:36:29.527Z,66.53
2017-11-19T07:38:57.198Z,65.87
2017-11-19T07:41:24.704Z,66.18
2017-11-19T07:43:52.518Z,65.56
2017-11-19T07:46:20.028Z,65.32
2017-11-19T07:48:47.535Z,65.27
2017-11-19T07:51:15.308Z,64.60
2017-11-19T07:53:42.879Z,64.50
2017-11-19T07:56:10.388Z,64.57
2017-11-19T07:58:37.974Z,62.85
2017-11-19T08:01:06.107Z,62.39
2017-11-19T08:03:33.618Z,62.69
2017-11-19T08:06:01.197Z,63.42
2017-11-19T08:08:28.722Z,63.11
2017-11-19T08:10:56.283Z,64.12
2017-11-19T08:13:23.999Z,65.20
2017-11-19T08:15:51.503Z,64.76
2017-11-19T08:18:19.065Z,64.64
2017-11-19T08:20:46.638Z,64.28
2017-11-19T08:23:14.182Z,64.16
2017-11-19T08:25:41.689Z,63.30
2017-11-19T08:28:09.245Z,63.36
2017-11-19T08:30:36.771Z,63.75
2017-11-19T08:33:04.315Z,63.32
2017-11-19T08:35:31.921Z,63.81
2017-11-19T08:37:59.470Z,62.50
2017-11-19T08:40:26.995Z,62.23
2017-11-19T08:42:54.540Z,61.65
2017-11-19T08:45:22.049Z,60.81
2017-11-19T08:47:49.561Z,61.61
2017-11-19T08:50:17.330Z,61.46
2017-11-19T08:52:44.885Z,61.10
2017-11-19T08:55:12.399Z,60.82
2017-11-19T08:57:40.124Z,60.32
2017-11-19T09:00:07.687Z,60.00
2017-11-19T09:02:35.228Z,59.73
2017-11-19T09:05:02.975Z,59.68
2017-11-19T09:07:30.493Z,59.52
2017-11-19T09:09:58.036Z,59.69
2017-11-19T09:12:25.955Z,58.41
2017-11-19T09:14:53.628Z,59.08
2017-11-19T09:17:21.195Z,58.78
2017-11-19T09:19:48.771Z,58.80
2017-11-19T09:22:16.283Z,57.87
2017-11-19T09:24:43.977Z,57.71
2017-11-19T09:27:11.543Z,57.72
2017-11-19T09:29:39.138Z,58.01
2017-11-19T09:32:06.859Z,58.24
2017-11-19T09:34:34.926Z,58.24
2017-11-19T09:37:02.440Z,58.43
2017-11-19T09:39:30.014Z,54.47
2017-11-19T09:41:57.611Z,53.22
2017-11-19T09:44:25.181Z,56.07
2017-11-19T09:46:52.730Z,57.29
2017-11-19T09:49:20.496Z,57.83
2017-11-19T09:51:48.163Z,57.53
2017-11-19T09:54:15.851Z,58.35
2017-11-19T09:56:44.063Z,59.38
2017-11-19T09:59:11.591Z,59.96
2017-11-19T10:01:39.127Z,61.05
2017-11-19T10:04:06.872Z,61.61
2017-11-19T10:06:34.400Z,60.39
2017-11-19T10:09:02.121Z,59.89
2017-11-19T10:11:29.855Z,55.98
2017-11-19T10:13:57.475Z,54.41
2017-11-19T10:16:25.039Z,54.79
2017-11-19T10:18:52.862Z,55.16
2017-11-19T10:21:20.602Z,55.05
2017-11-19T10:23:48.365Z,45.22
2017-11-19T10:26:16.194Z,35.95
2017-11-19T10:28:44.813Z,31.20
2017-11-19T10:31:12.684Z,30.37
2017-11-19T10:33:40.560Z,26.51
2017-11-19T10:36:08.590Z,25.56
2017-11-19T10:38:36.488Z,25.80
2017-11-19T10:41:04.453Z,25.70
2017-11-19T10:43:32.376Z,24.75
2017-11-19T10:46:00.068Z,23.67
2017-11-19T10:48:27.958Z,23.91
2017-11-19T10:50:55.582Z,21.54
2017-11-19T10:53:23.173Z,22.09
2017-11-19T10:55:51.021Z,22.99
2017-11-19T10:58:18.544Z,27.39
2017-11-19T11:00:46.154Z,30.53
2017-11-19T11:03:14.124Z,26.80
2017-11-19T11:05:41.890Z,23.13
2017-11-19T11:08:09.419Z,21.41
2017-11-19T11:10:37.187Z,19.84
2017-11-19T11:13:04.704Z,19.31
2017-11-19T11:15:32.429Z,20.03
2017-11-19T11:18:01.106Z,20.51
2017-11-19T11:20:28.675Z,18.95
2017-11-19T11:22:56.342Z,20.59
2017-11-19T11:25:24.423Z,20.11
2017-11-19T11:27:52.170Z,18.83
2017-11-19T11:30:19.943Z,19.29
2017-11-19T11:32:47.596Z,19.17
2017-11-19T11:35:15.113Z,17.10
2017-11-19T11:37:42.663Z,17.73
2017-11-19T11:40:10.473Z,18.55
2017-11-19T11:42:38.354Z,18.30
2017-11-19T11:45:06.109Z,19.57
2017-11-19T11:47:33.947Z,19.57
2017-11-19T11:50:01.740Z,24.08
2017-11-19T11:52:29.405Z,26.05
2017-11-19T11:54:57.185Z,29.55
2017-11-19T11:57:25.245Z,33.43
2017-11-19T11:59:53.101Z,37.31
2017-11-19T12:02:21.088Z,36.35
2017-11-19T12:04:48.843Z,39.49
2017-11-19T12:07:16.420Z,40.63
2017-11-19T12:09:44.877Z,33.37
2017-11-19T12:12:12.843Z,25.91
2017-11-19T12:14:40.712Z,24.18
2017-11-19T12:17:09.227Z,25.96
2017-11-19T12:19:39.212Z,29.84
2017-11-19T12:22:07.072Z,35.55
2017-11-19T12:24:37.008Z,40.73
2017-11-19T12:27:05.160Z,42.98
2017-11-19T12:29:33.650Z,43.24
2017-11-19T12:32:07.112Z,42.32
2017-11-19T12:34:38.231Z,43.49
2017-11-19T12:37:06.176Z,43.66
2017-11-19T12:39:34.124Z,43.90
2017-11-19T12:42:02.055Z,44.17
2017-11-19T12:44:30.064Z,43.99
2017-11-19T12:49:33.288Z,46.92
2017-11-19T12:52:03.262Z,47.15
2017-11-19T12:54:31.813Z,46.38
2017-11-19T12:57:06.083Z,46.63
2017-11-19T12:59:34.133Z,47.41
2017-11-19T13:02:01.921Z,47.89
2017-11-19T13:04:29.889Z,47.29
2017-11-19T13:06:57.663Z,46.00
2017-11-19T13:09:25.720Z,45.88
2017-11-19T13:11:54.309Z,46.61
2017-11-19T13:14:22.271Z,46.63
2017-11-19T13:16:50.039Z,45.91
2017-11-19T13:19:18.473Z,46.56
2017-11-19T13:21:46.073Z,45.96
2017-11-19T13:24:13.851Z,46.95
2017-11-19T13:26:41.602Z,47.00
2017-11-19T13:29:09.263Z,47.57
2017-11-19T13:31:36.937Z,47.73
2017-11-19T13:34:04.790Z,48.08
2017-11-19T13:36:32.361Z,47.88
2017-11-19T13:38:59.910Z,47.63
2017-11-19T13:41:27.980Z,47.57
2017-11-19T13:43:55.519Z,47.56
2017-11-19T13:46:23.207Z,48.50
2017-11-19T13:48:50.918Z,48.64
2017-11-19T13:51:18.627Z,48.81
2017-11-19T13:53:46.223Z,48.67
2017-11-19T13:56:14.156Z,47.22
2017-11-19T13:58:41.816Z,47.75
2017-11-19T14:01:09.660Z,47.12
2017-11-19T14:03:37.656Z,46.77
2017-11-19T14:06:05.415Z,45.30
2017-11-19T14:08:33.079Z,45.90
2017-11-19T14:11:01.762Z,46.74
2017-11-19T14:13:29.539Z,45.39
2017-11-19T14:15:57.360Z,45.45
2017-11-19T14:18:25.467Z,45.47
2017-11-19T14:20:53.330Z,45.68
2017-11-19T14:23:21.089Z,45.48
2017-11-19T14:25:48.834Z,45.65
2017-11-19T14:28:16.592Z,46.23
2017-11-19T14:30:44.390Z,46.85
2017-11-19T14:33:12.140Z,47.38
2017-11-19T14:35:39.811Z,47.78
2017-11-19T14:38:07.547Z,48.00
2017-11-19T14:40:35.646Z,48.13
2017-11-19T14:43:03.317Z,48.42
2017-11-19T14:45:31.079Z,49.21
2017-11-19T14:47:59.023Z,49.76
2017-11-19T14:50:26.804Z,50.07
2017-11-19T14:52:54.568Z,50.85
2017-11-19T14:55:22.846Z,51.68
2017-11-19T14:57:50.606Z,51.99
2017-11-19T15:00:18.472Z,53.01
2017-11-19T15:02:46.358Z,53.28
2017-11-19T15:05:15.128Z,53.93
2017-11-19T15:07:42.891Z,53.77
2017-11-19T15:10:10.859Z,53.37
2017-11-19T15:12:38.631Z,53.59
2017-11-19T15:15:07.115Z,53.47
2017-11-19T15:17:34.980Z,53.08
2017-11-19T15:20:02.873Z,53.55
2017-11-19T15:22:30.805Z,54.24
2017-11-19T15:24:58.951Z,54.44
2017-11-19T15:27:26.844Z,54.43
2017-11-19T15:29:54.617Z,54.28
2017-11-19T15:32:22.427Z,54.01
2017-11-19T15:34:50.342Z,54.50
2017-11-19T15:37:18.117Z,54.53
2017-11-19T15:39:46.177Z,55.16
2017-11-19T15:42:13.789Z,55.72
2017-11-19T15:44:41.531Z,55.36
2017-11-19T15:47:09.459Z,55.64
2017-11-19T15:49:37.333Z,56.14
2017-11-19T15:52:05.118Z,55.69
2017-11-19T15:54:32.969Z,55.72
2017-11-19T15:57:01.649Z,55.36
2017-11-19T15:59:29.413Z,55.88
2017-11-19T16:01:57.382Z,56.12
2017-11-19T16:04:25.147Z,56.56
2017-11-19T16:06:53.832Z,57.30
2017-11-19T16:09:22.004Z,57.96
2017-11-19T16:11:50.199Z,57.95
2017-11-19T16:14:18.863Z,58.76
2017-11-19T16:16:46.627Z,58.92
2017-11-19T16:19:14.203Z,58.83
2017-11-19T16:21:41.820Z,59.13
2017-11-19T16:24:10.225Z,59.18
2017-11-19T16:26:38.502Z,59.09
2017-11-19T16:29:06.371Z,59.86
2017-11-19T16:31:34.794Z,59.96
2017-11-19T16:34:03.968Z,60.10
2017-11-19T16:36:31.809Z,59.67
2017-11-19T16:38:59.881Z,60.04
2017-11-19T16:41:27.715Z,60.27
2017-11-19T16:43:55.614Z,59.79
2017-11-19T16:46:25.743Z,59.56
2017-11-19T16:48:53.496Z,59.35
2017-11-19T16:51:21.288Z,59.25
2017-11-19T16:53:50.458Z,59.52
2017-11-19T16:56:18.238Z,59.41
2017-11-19T16:58:46.004Z,59.44
2017-11-19T17:01:14.073Z,60.00
2017-11-19T17:03:42.026Z,59.57
2017-11-19T17:06:10.916Z,59.52
2017-11-19T17:08:39.001Z,59.87
2017-11-19T17:11:07.239Z,59.70
2017-11-19T17:13:35.036Z,59.79
2017-11-19T17:16:03.013Z,59.41
2017-11-19T17:18:31.068Z,58.96
2017-11-19T17:20:59.057Z,59.02
2017-11-19T17:23:27.329Z,59.11
2017-11-19T17:25:55.282Z,59.49
2017-11-19T17:28:23.557Z,59.59
2017-11-19T17:30:51.525Z,60.00
2017-11-19T17:33:19.493Z,60.32
2017-11-19T17:35:53.105Z,59.80
2017-11-19T17:38:20.892Z,59.70
2017-11-19T17:40:48.642Z,59.59
2017-11-19T17:43:17.001Z,59.35
2017-11-19T17:45:45.501Z,58.42
2017-11-19T17:48:13.254Z,58.55
2017-11-19T17:50:41.077Z,59.31
2017-11-19T17:53:08.760Z,59.45
2017-11-19T17:55:36.553Z,59.24
2017-11-19T17:58:04.505Z,59.27
2017-11-19T18:00:32.285Z,59.23
2017-11-19T18:03:00.053Z,59.61
2017-11-19T18:05:28.378Z,59.29
2017-11-19T18:07:56.156Z,59.03
2017-11-19T18:10:25.389Z,59.45
2017-11-19T18:12:53.341Z,60.19
2017-11-19T18:15:21.207Z,59.98
2017-11-19T18:17:49.382Z,59.83
2017-11-19T18:20:17.369Z,59.43
2017-11-19T18:22:45.833Z,59.61
2017-11-19T18:25:13.838Z,59.89
2017-11-19T18:27:41.878Z,59.98
2017-11-19T18:30:09.839Z,59.65
2017-11-19T18:32:37.819Z,60.15
2017-11-19T18:35:06.902Z,59.57
2017-11-19T18:37:34.769Z,60.16
2017-11-19T18:40:02.748Z,60.29
2017-11-19T18:42:31.232Z,59.89
2017-11-19T18:45:01.508Z,61.01
2017-11-19T18:47:29.614Z,60.23
2017-11-19T18:49:57.582Z,59.82
2017-11-19T18:52:25.551Z,60.17
2017-11-19T18:54:53.418Z,59.81
2017-11-19T18:57:22.474Z,59.80
2017-11-19T18:59:50.291Z,59.71
2017-11-19T19:02:18.143Z,59.85
2017-11-19T19:04:46.110Z,59.55
2017-11-19T19:07:15.811Z,59.21
2017-11-19T19:09:44.302Z,59.03
2017-11-19T19:12:12.274Z,59.25
2017-11-19T19:14:40.255Z,59.32
2017-11-19T19:17:08.016Z,59.60
2017-11-19T19:19:35.766Z,59.14
2017-11-19T19:22:03.531Z,58.10
2017-11-19T19:24:31.199Z,58.34
2017-11-19T19:26:58.955Z,58.28
2017-11-19T19:29:27.030Z,58.37
2017-11-19T19:31:55.305Z,57.80
2017-11-19T19:34:23.156Z,57.84
2017-11-19T19:36:50.988Z,57.26
2017-11-19T19:39:18.682Z,57.27
2017-11-19T19:41:46.474Z,57.65
2017-11-19T19:44:14.840Z,56.98
2017-11-19T19:46:42.756Z,56.83
2017-11-19T19:49:11.290Z,56.83
2017-11-19T19:51:38.953Z,57.24
2017-11-19T19:54:06.718Z,57.04
2017-11-19T19:56:34.786Z,57.30
2017-11-19T19:59:02.564Z,56.17
2017-11-19T20:01:30.312Z,56.11
2017-11-19T20:03:58.206Z,56.50
2017-11-19T20:06:25.940Z,55.70
2017-11-19T20:08:53.570Z,55.93
2017-11-19T20:11:21.376Z,55.91
2017-11-19T20:13:49.662Z,55.15
2017-11-19T20:16:17.408Z,55.24
2017-11-19T20:18:45.735Z,55.70
2017-11-19T20:21:13.961Z,54.94
2017-11-19T20:23:42.954Z,55.13
2017-11-19T20:26:11.030Z,54.84
2017-11-19T20:28:38.910Z,54.98
2017-11-19T20:31:06.758Z,54.90
2017-11-19T20:33:34.633Z,53.78
2017-11-19T20:36:03.025Z,54.32
2017-11-19T20:38:30.868Z,54.69
2017-11-19T20:40:58.942Z,54.08
2017-11-19T20:43:26.708Z,54.14
2017-11-19T20:45:54.455Z,53.73
2017-11-19T20:48:22.626Z,54.06
2017-11-19T20:50:50.271Z,54.17
2017-11-19T20:53:18.169Z,53.54
2017-11-19T20:55:45.953Z,53.93
2017-11-19T20:58:13.699Z,53.64
2017-11-19T21:00:41.443Z,53.64
2017-11-19T21:03:09.227Z,54.48
2017-11-19T21:05:37.092Z,54.93
2017-11-19T21:08:04.883Z,54.38
2017-11-19T21:10:32.739Z,54.24
2017-11-19T21:13:00.589Z,53.88
2017-11-19T21:15:28.455Z,53.52
2017-11-19T21:17:56.231Z,53.41
2017-11-19T21:20:24.187Z,53.78
2017-11-19T21:22:51.953Z,53.89
2017-11-19T21:25:19.716Z,53.87
2017-11-19T21:27:47.473Z,54.56
2017-11-19T21:30:15.141Z,53.68
2017-11-19T21:32:42.727Z,53.17
2017-11-19T21:35:10.467Z,53.50
2017-11-19T21:37:38.227Z,53.47
2017-11-19T21:40:06.201Z,53.09
2017-11-19T21:42:34.071Z,53.19
2017-11-19T21:45:01.718Z,53.59
2017-11-19T21:47:29.572Z,53.45
2017-11-19T21:49:57.085Z,53.19
2017-11-19T21:52:24.669Z,53.45
2017-11-19T21:54:52.677Z,53.66
2017-11-19T21:57:20.465Z,53.12
2017-11-19T21:59:48.103Z,53.33
2017-11-19T22:02:15.695Z,53.54
2017-11-19T22:04:43.221Z,53.47
2017-11-19T22:07:10.825Z,53.11
2017-11-19T22:09:38.663Z,52.98
2017-11-19T22:12:06.325Z,53.54
2017-11-19T22:14:33.859Z,52.27
2017-11-19T22:17:01.767Z,52.95
2017-11-19T22:19:29.294Z,53.00
2017-11-19T22:21:58.652Z,53.05
2017-11-19T22:24:26.359Z,54.24
2017-11-19T22:26:53.916Z,53.49
2017-11-19T22:29:21.428Z,53.69
2017-11-19T22:31:48.995Z,53.90
2017-11-19T22:34:16.506Z,53.46
2017-11-19T22:36:44.049Z,52.60
2017-11-19T22:39:11.744Z,53.13
2017-11-19T22:41:39.283Z,53.83
2017-11-19T22:44:07.137Z,53.57
2017-11-19T22:46:35.002Z,53.63
2017-11-19T22:49:02.589Z,53.17
2017-11-19T22:51:30.242Z,52.88
2017-11-19T22:53:58.294Z,54.20
2017-11-19T22:56:25.854Z,53.23
2017-11-19T22:58:53.426Z,52.78
2017-11-19T23:01:21.147Z,53.82
2017-11-19T23:03:48.659Z,52.85
2017-11-19T23:06:16.199Z,53.20
2017-11-19T23:08:43.775Z,54.09
2017-11-19T23:11:11.318Z,53.80
2017-11-19T23:13:38.888Z,53.82
2017-11-19T23:16:06.615Z,53.25
2017-11-19T23:18:34.122Z,53.46
2017-11-19T23:21:01.637Z,53.89
2017-11-19T23:23:29.218Z,54.58
2017-11-19T23:25:56.776Z,53.99
2017-11-19T23:28:24.286Z,54.77
2017-11-19T23:30:52.195Z,53.80
2017-11-19T23:33:19.754Z,54.32
2017-11-19T23:35:47.268Z,54.54
2017-11-19T23:38:14.871Z,54.30
2017-11-19T23:40:42.738Z,54.07
2017-11-19T23:43:10.242Z,53.89
2017-11-19T23:45:38.040Z,54.92
2017-11-19T23:48:05.543Z,54.53
2017-11-19T23:50:33.077Z,54.51
2017-11-19T23:53:00.648Z,55.34
2017-11-19T23:55:28.207Z,54.90
2017-11-19T23:57:55.727Z,55.08
